Terminal Aerodrome Forecast
Issued by NWS

Home | Current Version | Previous Version | Text Only | Print | Product List | Glossary On
Versions: 1 2 3 4 5 6 7 8 9 10 11 12 13 14 15 16 17 18 19 20 21
000
FTUS43 KEAX 142300
TAFSTJ
TAF
KSTJ 142320Z 1500/1524 17006KT P6SM BKN050
     FM150900 14005KT P6SM VCTS OVC035CB
     FM151300 33007KT P6SM VCSH BKN015
     FM151800 36012KT P6SM BKN025=

USA.gov is the U.S. government's official web portal to all federal, state and local government web resources and services.